sensor_id;sensor_type;location;lat;lon;timestamp;pressure;altitude;pressure_sealevel;temperature;humidity
8069;BME280;4077;43.702;24.896;2023-04-12T00:01:48;98388.13;;;10.80;100.00
8069;BME280;4077;43.702;24.896;2023-04-12T00:04:14;98367.66;;;10.54;100.00
8069;BME280;4077;43.702;24.896;2023-04-12T00:06:41;98380.56;;;10.56;100.00
8069;BME280;4077;43.702;24.896;2023-04-12T00:09:06;98384.06;;;10.50;100.00
8069;BME280;4077;43.702;24.896;2023-04-12T00:11:33;98385.72;;;10.57;100.00
8069;BME280;4077;43.702;24.896;2023-04-12T00:13:59;98384.88;;;10.57;100.00
8069;BME280;4077;43.702;24.896;2023-04-12T00:16:25;98383.16;;;10.50;100.00
8069;BME280;4077;43.702;24.896;2023-04-12T00:18:50;98371.16;;;10.50;100.00
8069;BME280;4077;43.702;24.896;2023-04-12T00:21:16;98377.97;;;10.59;100.00
8069;BME280;4077;43.702;24.896;2023-04-12T00:23:46;98377.13;;;10.55;100.00
8069;BME280;4077;43.702;24.896;2023-04-12T00:26:13;98368.56;;;10.52;100.00
8069;BME280;4077;43.702;24.896;2023-04-12T00:28:40;98365.09;;;10.50;100.00
8069;BME280;4077;43.702;24.896;2023-04-12T00:31:06;98370.28;;;10.51;100.00
8069;BME280;4077;43.702;24.896;2023-04-12T00:33:35;98363.44;;;10.41;100.00
8069;BME280;4077;43.702;24.896;2023-04-12T00:36:01;98363.44;;;10.46;100.00
8069;BME280;4077;43.702;24.896;2023-04-12T00:38:27;98356.56;;;10.41;100.00
8069;BME280;4077;43.702;24.896;2023-04-12T00:40:52;98367.78;;;10.37;100.00
8069;BME280;4077;43.702;24.896;2023-04-12T00:43:18;98364.34;;;10.35;100.00
8069;BME280;4077;43.702;24.896;2023-04-12T00:45:47;98363.50;;;10.33;100.00
8069;BME280;4077;43.702;24.896;2023-04-12T00:48:13;98356.59;;;10.35;100.00
8069;BME280;4077;43.702;24.896;2023-04-12T00:50:40;98361.81;;;10.31;100.00
8069;BME280;4077;43.702;24.896;2023-04-12T00:53:14;98361.84;;;10.25;100.00
8069;BME280;4077;43.702;24.896;2023-04-12T00:55:45;98348.94;;;10.26;100.00
8069;BME280;4077;43.702;24.896;2023-04-12T00:58:11;98339.44;;;10.31;100.00
8069;BME280;4077;43.702;24.896;2023-04-12T01:00:38;98338.66;;;10.23;100.00
8069;BME280;4077;43.702;24.896;2023-04-12T01:03:04;98343.78;;;10.20;100.00
8069;BME280;4077;43.702;24.896;2023-04-12T01:05:35;98345.50;;;10.26;100.00
8069;BME280;4077;43.702;24.896;2023-04-12T01:08:16;98336.91;;;10.19;100.00
8069;BME280;4077;43.702;24.896;2023-04-12T01:13:50;98334.34;;;10.16;100.00
8069;BME280;4077;43.702;24.896;2023-04-12T01:16:22;98336.91;;;10.19;100.00
8069;BME280;4077;43.702;24.896;2023-04-12T01:18:53;98330.91;;;10.14;100.00
8069;BME280;4077;43.702;24.896;2023-04-12T01:21:30;98340.34;;;10.18;100.00
8069;BME280;4077;43.702;24.896;2023-04-12T01:26:46;98324.88;;;10.15;100.00
8069;BME280;4077;43.702;24.896;2023-04-12T01:29:18;98330.88;;;10.20;100.00
8069;BME280;4077;43.702;24.896;2023-04-12T01:31:58;98327.47;;;10.23;100.00
8069;BME280;4077;43.702;24.896;2023-04-12T01:34:27;98327.44;;;10.27;100.00
8069;BME280;4077;43.702;24.896;2023-04-12T01:36:54;98323.09;;;10.29;100.00
8069;BME280;4077;43.702;24.896;2023-04-12T01:39:21;98325.69;;;10.28;100.00
8069;BME280;4077;43.702;24.896;2023-04-12T01:41:47;98331.72;;;10.28;100.00
8069;BME280;4077;43.702;24.896;2023-04-12T01:44:16;98332.63;;;10.23;100.00
8069;BME280;4077;43.702;24.896;2023-04-12T01:46:43;98311.16;;;10.13;100.00
8069;BME280;4077;43.702;24.896;2023-04-12T01:49:12;98318.00;;;10.14;100.00
8069;BME280;4077;43.702;24.896;2023-04-12T01:52:06;98320.63;;;10.11;100.00
8069;BME280;4077;43.702;24.896;2023-04-12T01:54:40;98324.88;;;10.18;100.00
8069;BME280;4077;43.702;24.896;2023-04-12T01:57:07;98324.91;;;10.12;100.00
8069;BME280;4077;43.702;24.896;2023-04-12T01:59:43;98327.47;;;10.18;100.00
8069;BME280;4077;43.702;24.896;2023-04-12T02:02:12;98316.31;;;10.11;100.00
8069;BME280;4077;43.702;24.896;2023-04-12T02:04:38;98324.94;;;10.07;100.00
8069;BME280;4077;43.702;24.896;2023-04-12T02:07:05;98316.38;;;9.99;100.00
8069;BME280;4077;43.702;24.896;2023-04-12T02:09:35;98311.22;;;10.01;100.00
8069;BME280;4077;43.702;24.896;2023-04-12T02:12:02;98324.88;;;10.15;100.00
8069;BME280;4077;43.702;24.896;2023-04-12T02:14:28;98330.00;;;10.21;100.00
8069;BME280;4077;43.702;24.896;2023-04-12T02:16:55;98326.63;;;10.16;100.00
8069;BME280;4077;43.702;24.896;2023-04-12T02:19:22;98324.91;;;10.13;100.00
8069;BME280;4077;43.702;24.896;2023-04-12T02:21:48;98325.75;;;10.14;100.00
8069;BME280;4077;43.702;24.896;2023-04-12T02:24:14;98324.03;;;10.13;100.00
8069;BME280;4077;43.702;24.896;2023-04-12T02:26:40;98326.66;;;10.10;100.00
8069;BME280;4077;43.702;24.896;2023-04-12T02:29:06;98328.31;;;10.15;100.00
8069;BME280;4077;43.702;24.896;2023-04-12T02:31:33;98333.44;;;10.20;100.00
8069;BME280;4077;43.702;24.896;2023-04-12T02:34:01;98324.13;;;9.98;100.00
8069;BME280;4077;43.702;24.896;2023-04-12T02:36:26;98319.81;;;10.03;100.00
8069;BME280;4077;43.702;24.896;2023-04-12T02:38:52;98324.91;;;10.12;100.00
8069;BME280;4077;43.702;24.896;2023-04-12T02:41:19;98330.00;;;10.21;100.00
8069;BME280;4077;43.702;24.896;2023-04-12T02:43:45;98318.94;;;10.04;100.00
8069;BME280;4077;43.702;24.896;2023-04-12T02:46:16;98320.63;;;10.08;100.00
8069;BME280;4077;43.702;24.896;2023-04-12T02:48:44;98325.78;;;10.08;100.00
8069;BME280;4077;43.702;24.896;2023-04-12T02:51:09;98318.97;;;10.02;100.00
8069;BME280;4077;43.702;24.896;2023-04-12T02:53:34;98324.94;;;10.07;100.00
8069;BME280;4077;43.702;24.896;2023-04-12T02:56:00;98318.09;;;9.99;100.00
8069;BME280;4077;43.702;24.896;2023-04-12T02:58:27;98313.00;;;9.86;100.00
8069;BME280;4077;43.702;24.896;2023-04-12T03:00:53;98327.56;;;9.94;100.00
8069;BME280;4077;43.702;24.896;2023-04-12T03:03:19;98324.16;;;9.96;100.00
8069;BME280;4077;43.702;24.896;2023-04-12T03:05:45;98327.56;;;9.98;100.00
8069;BME280;4077;43.702;24.896;2023-04-12T03:08:12;98318.97;;;10.02;100.00
8069;BME280;4077;43.702;24.896;2023-04-12T03:10:38;98321.56;;;9.96;100.00
8069;BME280;4077;43.702;24.896;2023-04-12T03:13:03;98326.75;;;9.90;100.00
8069;BME280;4077;43.702;24.896;2023-04-12T03:15:30;98316.44;;;9.89;100.00
8069;BME280;4077;43.702;24.896;2023-04-12T03:17:55;98319.84;;;9.97;100.00
8069;BME280;4077;43.702;24.896;2023-04-12T03:20:21;98328.47;;;9.90;100.00
8069;BME280;4077;43.702;24.896;2023-04-12T03:22:48;98314.78;;;9.74;100.00
8069;BME280;4077;43.702;24.896;2023-04-12T03:25:14;98324.19;;;9.81;100.00
8069;BME280;4077;43.702;24.896;2023-04-12T03:27:42;98326.75;;;9.87;100.00
8069;BME280;4077;43.702;24.896;2023-04-12T03:30:08;98335.31;;;9.94;100.00
8069;BME280;4077;43.702;24.896;2023-04-12T03:32:36;98325.88;;;9.96;100.00
8069;BME280;4077;43.702;24.896;2023-04-12T03:35:01;98337.00;;;10.01;100.00
8069;BME280;4077;43.702;24.896;2023-04-12T03:37:27;98324.16;;;9.92;100.00
8069;BME280;4077;43.702;24.896;2023-04-12T03:39:53;98340.47;;;9.97;100.00
8069;BME280;4077;43.702;24.896;2023-04-12T03:42:18;98327.63;;;9.86;100.00
8069;BME280;4077;43.702;24.896;2023-04-12T03:44:44;98322.50;;;9.83;100.00
8069;BME280;4077;43.702;24.896;2023-04-12T03:47:10;98332.78;;;9.80;100.00
8069;BME280;4077;43.702;24.896;2023-04-12T03:49:36;98340.47;;;9.94;100.00
8069;BME280;4077;43.702;24.896;2023-04-12T03:52:04;98336.19;;;9.90;100.00
8069;BME280;4077;43.702;24.896;2023-04-12T03:54:30;98339.59;;;9.93;100.00
8069;BME280;4077;43.702;24.896;2023-04-12T03:56:55;98340.53;;;9.81;100.00
8069;BME280;4077;43.702;24.896;2023-04-12T03:59:21;98342.13;;;10.05;100.00
8069;BME280;4077;43.702;24.896;2023-04-12T04:01:46;98335.34;;;9.91;100.00
8069;BME280;4077;43.702;24.896;2023-04-12T04:04:12;98341.38;;;9.80;100.00
8069;BME280;4077;43.702;24.896;2023-04-12T04:06:38;98339.66;;;9.81;100.00
8069;BME280;4077;43.702;24.896;2023-04-12T04:09:03;98355.06;;;9.93;100.00
8069;BME280;4077;43.702;24.896;2023-04-12T04:11:29;98355.94;;;9.91;100.00
8069;BME280;4077;43.702;24.896;2023-04-12T04:13:56;98359.41;;;9.90;100.00
8069;BME280;4077;43.702;24.896;2023-04-12T04:16:21;98356.81;;;9.88;100.00
8069;BME280;4077;43.702;24.896;2023-04-12T04:18:47;98350.78;;;9.94;100.00
8069;BME280;4077;43.702;24.896;2023-04-12T04:21:13;98359.38;;;9.96;100.00
8069;BME280;4077;43.702;24.896;2023-04-12T04:23:38;98361.97;;;9.90;100.00
8069;BME280;4077;43.702;24.896;2023-04-12T04:26:07;98371.38;;;9.94;100.00
8069;BME280;4077;43.702;24.896;2023-04-12T04:28:40;98373.13;;;9.87;100.00
8069;BME280;4077;43.702;24.896;2023-04-12T04:31:12;98377.44;;;9.90;100.00
8069;BME280;4077;43.702;24.896;2023-04-12T04:33:47;98381.72;;;9.87;100.00
8069;BME280;4077;43.702;24.896;2023-04-12T04:36:13;98386.84;;;9.94;100.00
8069;BME280;4077;43.702;24.896;2023-04-12T04:38:39;98381.69;;;9.98;100.00
8069;BME280;4077;43.702;24.896;2023-04-12T04:41:06;98379.94;;;10.02;100.00
8069;BME280;4077;43.702;24.896;2023-04-12T04:43:33;98385.13;;;9.99;100.00
8069;BME280;4077;43.702;24.896;2023-04-12T04:45:59;98393.72;;;9.98;100.00
8069;BME280;4077;43.702;24.896;2023-04-12T04:48:25;98385.13;;;9.99;100.00
8069;BME280;4077;43.702;24.896;2023-04-12T04:50:51;98388.53;;;10.07;100.00
8069;BME280;4077;43.702;24.896;2023-04-12T04:53:18;98390.25;;;10.05;100.00
8069;BME280;4077;43.702;24.896;2023-04-12T04:55:45;98389.38;;;10.10;100.00
8069;BME280;4077;43.702;24.896;2023-04-12T04:58:12;98389.41;;;10.04;100.00
8069;BME280;4077;43.702;24.896;2023-04-12T05:00:38;98392.06;;;9.84;100.00
8069;BME280;4077;43.702;24.896;2023-04-12T05:03:03;98383.47;;;9.89;100.00
8069;BME280;4077;43.702;24.896;2023-04-12T05:05:29;98389.44;;;9.94;100.00
8069;BME280;4077;43.702;24.896;2023-04-12T05:07:55;98386.00;;;9.95;100.00
8069;BME280;4077;43.702;24.896;2023-04-12T05:10:21;98389.41;;;10.03;100.00
8069;BME280;4077;43.702;24.896;2023-04-12T05:12:47;98393.69;;;10.07;100.00
8069;BME280;4077;43.702;24.896;2023-04-12T05:15:12;98383.38;;;10.07;100.00
8069;BME280;4077;43.702;24.896;2023-04-12T05:17:38;98402.22;;;10.30;100.00
8069;BME280;4077;43.702;24.896;2023-04-12T05:20:04;98389.22;;;10.47;100.00
8069;BME280;4077;43.702;24.896;2023-04-12T05:22:32;98384.16;;;10.32;100.00
8069;BME280;4077;43.702;24.896;2023-04-12T05:24:57;98384.97;;;10.38;100.00
8069;BME280;4077;43.702;24.896;2023-04-12T05:27:23;98386.69;;;10.39;100.00
8069;BME280;4077;43.702;24.896;2023-04-12T05:29:48;98384.94;;;10.41;100.00
8069;BME280;4077;43.702;24.896;2023-04-12T05:32:14;98379.81;;;10.38;100.00
8069;BME280;4077;43.702;24.896;2023-04-12T05:34:39;98381.44;;;10.53;100.00
8069;BME280;4077;43.702;24.896;2023-04-12T05:37:06;98363.25;;;10.68;100.00
8069;BME280;4077;43.702;24.896;2023-04-12T05:39:32;98372.56;;;10.89;100.00
8069;BME280;4077;43.702;24.896;2023-04-12T05:41:57;98374.22;;;11.00;100.00
8069;BME280;4077;43.702;24.896;2023-04-12T05:44:23;98367.16;;;11.18;100.00
8069;BME280;4077;43.702;24.896;2023-04-12T05:46:48;98370.31;;;11.49;100.00
8069;BME280;4077;43.702;24.896;2023-04-12T05:49:14;98374.13;;;11.96;100.00
8069;BME280;4077;43.702;24.896;2023-04-12T05:51:40;98378.78;;;12.36;100.00
8069;BME280;4077;43.702;24.896;2023-04-12T05:54:05;98376.38;;;12.82;100.00
8069;BME280;4077;43.702;24.896;2023-04-12T05:56:32;98372.75;;;12.93;100.00
8069;BME280;4077;43.702;24.896;2023-04-12T05:58:58;98369.34;;;12.91;100.00
8069;BME280;4077;43.702;24.896;2023-04-12T06:01:26;98365.81;;;12.95;100.00
8069;BME280;4077;43.702;24.896;2023-04-12T06:03:56;98363.41;;;12.84;100.00
8069;BME280;4077;43.702;24.896;2023-04-12T06:06:21;98364.88;;;13.00;100.00
8069;BME280;4077;43.702;24.896;2023-04-12T06:08:47;98363.06;;;13.05;100.00
8069;BME280;4077;43.702;24.896;2023-04-12T06:11:12;98364.53;;;13.22;100.00
8069;BME280;4077;43.702;24.896;2023-04-12T06:13:38;98370.63;;;13.65;100.00
8069;BME280;4077;43.702;24.896;2023-04-12T06:16:04;98371.84;;;13.94;100.00
8069;BME280;4077;43.702;24.896;2023-04-12T06:18:30;98373.13;;;14.13;100.00
8069;BME280;4077;43.702;24.896;2023-04-12T06:20:56;98385.06;;;14.64;100.00
8069;BME280;4077;43.702;24.896;2023-04-12T06:23:21;98376.88;;;14.81;98.25
8069;BME280;4077;43.702;24.896;2023-04-12T06:25:47;98378.00;;;15.06;94.53
8069;BME280;4077;43.702;24.896;2023-04-12T06:28:12;98375.84;;;15.56;93.44
8069;BME280;4077;43.702;24.896;2023-04-12T06:30:38;98392.34;;;15.55;88.79
8069;BME280;4077;43.702;24.896;2023-04-12T06:33:03;98391.13;;;15.36;86.25
8069;BME280;4077;43.702;24.896;2023-04-12T06:35:28;98368.47;;;15.41;87.03
8069;BME280;4077;43.702;24.896;2023-04-12T06:37:54;98386.66;;;15.41;85.58
8069;BME280;4077;43.702;24.896;2023-04-12T06:40:19;98381.63;;;15.35;86.01
8069;BME280;4077;43.702;24.896;2023-04-12T06:42:45;98381.00;;;15.57;84.55
8069;BME280;4077;43.702;24.896;2023-04-12T06:45:11;98392.66;;;15.78;82.85
8069;BME280;4077;43.702;24.896;2023-04-12T06:47:36;98379.69;;;15.75;81.84
8069;BME280;4077;43.702;24.896;2023-04-12T06:50:01;98398.81;;;15.74;82.04
8069;BME280;4077;43.702;24.896;2023-04-12T06:52:27;98389.94;;;15.81;80.70
8069;BME280;4077;43.702;24.896;2023-04-12T06:54:54;98384.41;;;15.61;80.40
8069;BME280;4077;43.702;24.896;2023-04-12T06:57:20;98394.22;;;15.50;80.93
8069;BME280;4077;43.702;24.896;2023-04-12T06:59:46;98386.34;;;15.19;80.38
8069;BME280;4077;43.702;24.896;2023-04-12T07:02:11;98371.69;;;14.81;80.72
8069;BME280;4077;43.702;24.896;2023-04-12T07:04:37;98380.72;;;14.24;83.26
8069;BME280;4077;43.702;24.896;2023-04-12T07:07:02;98376.25;;;14.31;84.63
8069;BME280;4077;43.702;24.896;2023-04-12T07:09:31;98379.94;;;14.61;84.55
8069;BME280;4077;43.702;24.896;2023-04-12T07:11:57;98365.22;;;14.21;84.58
8069;BME280;4077;43.702;24.896;2023-04-12T07:14:23;98375.91;;;13.62;86.28
8069;BME280;4077;43.702;24.896;2023-04-12T07:16:48;98368.22;;;13.56;88.18
8069;BME280;4077;43.702;24.896;2023-04-12T07:19:14;98364.22;;;13.40;89.33
8069;BME280;4077;43.702;24.896;2023-04-12T07:21:40;98373.09;;;13.27;90.24
8069;BME280;4077;43.702;24.896;2023-04-12T07:24:06;98372.59;;;13.02;91.06
8069;BME280;4077;43.702;24.896;2023-04-12T07:26:31;98374.63;;;12.84;92.70
8069;BME280;4077;43.702;24.896;2023-04-12T07:28:57;98377.34;;;12.77;93.28
8069;BME280;4077;43.702;24.896;2023-04-12T07:31:22;98382.81;;;12.55;93.78
8069;BME280;4077;43.702;24.896;2023-04-12T07:33:48;98401.59;;;12.71;94.25
8069;BME280;4077;43.702;24.896;2023-04-12T07:36:14;98381.09;;;12.56;94.89
8069;BME280;4077;43.702;24.896;2023-04-12T07:38:41;98389.97;;;12.38;94.24
8069;BME280;4077;43.702;24.896;2023-04-12T07:41:06;98378.13;;;12.22;95.30
8069;BME280;4077;43.702;24.896;2023-04-12T07:43:32;98384.94;;;12.26;95.63
8069;BME280;4077;43.702;24.896;2023-04-12T07:45:58;98390.63;;;12.52;95.46
8069;BME280;4077;43.702;24.896;2023-04-12T07:48:23;98402.66;;;12.55;95.45
8069;BME280;4077;43.702;24.896;2023-04-12T07:50:49;98404.41;;;12.54;97.91
8069;BME280;4077;43.702;24.896;2023-04-12T07:53:23;98398.09;;;12.74;93.76
8069;BME280;4077;43.702;24.896;2023-04-12T07:55:49;98407.66;;;13.26;91.04
8069;BME280;4077;43.702;24.896;2023-04-12T07:58:16;98407.13;;;13.56;89.32
8069;BME280;4077;43.702;24.896;2023-04-12T08:00:42;98408.19;;;13.91;86.78
8069;BME280;4077;43.702;24.896;2023-04-12T08:03:10;98410.91;;;13.86;83.82
8069;BME280;4077;43.702;24.896;2023-04-12T08:05:36;98406.41;;;13.93;83.94
8069;BME280;4077;43.702;24.896;2023-04-12T08:08:02;98389.69;;;13.64;82.91
8069;BME280;4077;43.702;24.896;2023-04-12T08:10:28;98401.91;;;13.59;83.17
8069;BME280;4077;43.702;24.896;2023-04-12T08:12:55;98397.06;;;13.39;83.22
8069;BME280;4077;43.702;24.896;2023-04-12T08:15:20;98392.97;;;13.26;82.07
8069;BME280;4077;43.702;24.896;2023-04-12T08:17:46;98399.09;;;13.21;83.65
8069;BME280;4077;43.702;24.896;2023-04-12T08:20:12;98389.78;;;13.07;82.24
8069;BME280;4077;43.702;24.896;2023-04-12T08:22:38;98393.28;;;13.03;83.29
8069;BME280;4077;43.702;24.896;2023-04-12T08:25:04;98392.63;;;12.92;85.52
8069;BME280;4077;43.702;24.896;2023-04-12T08:27:30;98384.22;;;12.76;85.63
8069;BME280;4077;43.702;24.896;2023-04-12T08:29:56;98394.69;;;12.69;89.17
8069;BME280;4077;43.702;24.896;2023-04-12T08:32:22;98387.06;;;12.59;88.72
8069;BME280;4077;43.702;24.896;2023-04-12T08:34:47;98388.03;;;12.52;87.80
8069;BME280;4077;43.702;24.896;2023-04-12T08:37:12;98370.81;;;12.51;88.68
8069;BME280;4077;43.702;24.896;2023-04-12T08:39:38;98383.22;;;12.86;88.12
8069;BME280;4077;43.702;24.896;2023-04-12T08:42:03;98373.31;;;13.11;86.47
8069;BME280;4077;43.702;24.896;2023-04-12T08:44:34;98371.03;;;13.44;86.05
8069;BME280;4077;43.702;24.896;2023-04-12T08:47:05;98373.97;;;13.74;84.63
8069;BME280;4077;43.702;24.896;2023-04-12T08:49:32;98386.09;;;13.72;81.44
8069;BME280;4077;43.702;24.896;2023-04-12T08:52:00;98384.03;;;13.89;81.58
8069;BME280;4077;43.702;24.896;2023-04-12T08:54:27;98379.50;;;13.99;80.30
8069;BME280;4077;43.702;24.896;2023-04-12T08:56:55;98387.13;;;14.08;80.96
8069;BME280;4077;43.702;24.896;2023-04-12T08:59:24;98363.34;;;14.28;80.03
8069;BME280;4077;43.702;24.896;2023-04-12T09:01:52;98385.97;;;14.61;78.22
8069;BME280;4077;43.702;24.896;2023-04-12T09:04:18;98382.25;;;14.73;75.62
8069;BME280;4077;43.702;24.896;2023-04-12T09:06:43;98397.28;;;14.96;75.12
8069;BME280;4077;43.702;24.896;2023-04-12T09:09:10;98388.00;;;15.21;72.73
8069;BME280;4077;43.702;24.896;2023-04-12T09:11:35;98383.66;;;15.22;73.01
8069;BME280;4077;43.702;24.896;2023-04-12T09:14:01;98380.09;;;14.92;73.32
8069;BME280;4077;43.702;24.896;2023-04-12T09:16:36;98366.84;;;14.65;73.30
8069;BME280;4077;43.702;24.896;2023-04-12T09:19:03;98364.75;;;14.42;75.74
8069;BME280;4077;43.702;24.896;2023-04-12T09:21:28;98372.13;;;14.61;75.06
8069;BME280;4077;43.702;24.896;2023-04-12T09:24:03;98371.00;;;15.08;74.88
8069;BME280;4077;43.702;24.896;2023-04-12T09:26:30;98359.25;;;15.62;74.96
8069;BME280;4077;43.702;24.896;2023-04-12T09:28:56;98375.81;;;15.57;71.68
8069;BME280;4077;43.702;24.896;2023-04-12T09:31:21;98383.75;;;15.19;71.25
8069;BME280;4077;43.702;24.896;2023-04-12T09:33:47;98388.44;;;14.67;72.32
8069;BME280;4077;43.702;24.896;2023-04-12T09:36:12;98383.22;;;14.29;73.19
8069;BME280;4077;43.702;24.896;2023-04-12T09:38:39;98391.16;;;13.78;74.46
8069;BME280;4077;43.702;24.896;2023-04-12T09:41:17;98388.78;;;13.67;74.40
8069;BME280;4077;43.702;24.896;2023-04-12T09:43:43;98384.25;;;13.32;75.53
8069;BME280;4077;43.702;24.896;2023-04-12T09:46:10;98391.84;;;13.41;76.08
8069;BME280;4077;43.702;24.896;2023-04-12T09:48:41;98383.25;;;13.37;76.13
8069;BME280;4077;43.702;24.896;2023-04-12T09:51:13;98379.88;;;13.34;75.93
8069;BME280;4077;43.702;24.896;2023-04-12T09:53:48;98388.44;;;13.39;77.83
8069;BME280;4077;43.702;24.896;2023-04-12T09:56:15;98393.72;;;13.79;78.56
8069;BME280;4077;43.702;24.896;2023-04-12T09:58:41;98389.03;;;13.98;75.92
8069;BME280;4077;43.702;24.896;2023-04-12T10:01:08;98395.22;;;13.91;74.83
8069;BME280;4077;43.702;24.896;2023-04-12T10:03:34;98373.88;;;13.77;75.21
8069;BME280;4077;43.702;24.896;2023-04-12T10:06:01;98387.63;;;13.82;75.60
8069;BME280;4077;43.702;24.896;2023-04-12T10:08:28;98380.47;;;13.93;75.69
8069;BME280;4077;43.702;24.896;2023-04-12T10:10:55;98396.22;;;13.84;75.05
8069;BME280;4077;43.702;24.896;2023-04-12T10:13:22;98400.63;;;13.79;75.23
8069;BME280;4077;43.702;24.896;2023-04-12T10:15:48;98391.16;;;13.78;75.68
8069;BME280;4077;43.702;24.896;2023-04-12T10:18:17;98397.81;;;13.91;76.63
8069;BME280;4077;43.702;24.896;2023-04-12T10:20:42;98391.63;;;13.98;75.82
8069;BME280;4077;43.702;24.896;2023-04-12T10:23:08;98402.56;;;14.12;75.07
8069;BME280;4077;43.702;24.896;2023-04-12T10:25:37;98398.97;;;14.19;73.47
8069;BME280;4077;43.702;24.896;2023-04-12T10:28:14;98403.78;;;14.38;74.19
8069;BME280;4077;43.702;24.896;2023-04-12T10:30:55;98392.06;;;14.18;73.07
8069;BME280;4077;43.702;24.896;2023-04-12T10:33:29;98395.28;;;14.31;73.60
8069;BME280;4077;43.702;24.896;2023-04-12T10:35:59;98388.66;;;14.16;75.23
8069;BME280;4077;43.702;24.896;2023-04-12T10:38:28;98391.63;;;13.98;76.57
8069;BME280;4077;43.702;24.896;2023-04-12T10:41:08;98395.03;;;14.02;76.33
8069;BME280;4077;43.702;24.896;2023-04-12T10:43:34;98392.50;;;13.97;74.69
8069;BME280;4077;43.702;24.896;2023-04-12T10:45:59;98382.09;;;14.00;75.28
8069;BME280;4077;43.702;24.896;2023-04-12T10:48:37;98382.00;;;14.03;75.27
8069;BME280;4077;43.702;24.896;2023-04-12T10:51:22;98379.34;;;14.06;76.16
8069;BME280;4077;43.702;24.896;2023-04-12T10:56:44;98388.59;;;14.19;75.10
8069;BME280;4077;43.702;24.896;2023-04-12T10:59:13;98396.13;;;14.32;74.39
8069;BME280;4077;43.702;24.896;2023-04-12T11:01:40;98401.56;;;14.61;73.56
8069;BME280;4077;43.702;24.896;2023-04-12T11:04:17;98393.63;;;14.69;72.13
8069;BME280;4077;43.702;24.896;2023-04-12T11:07:00;98396.66;;;14.49;72.01
8069;BME280;4077;43.702;24.896;2023-04-12T11:14:34;98397.59;;;14.84;70.38
8069;BME280;4077;43.702;24.896;2023-04-12T11:19:43;98381.91;;;15.24;69.28
8069;BME280;4077;43.702;24.896;2023-04-12T11:22:10;98382.66;;;15.27;68.77
8069;BME280;4077;43.702;24.896;2023-04-12T11:24:59;98383.94;;;15.11;68.81
8069;BME280;4077;43.702;24.896;2023-04-12T11:27:25;98378.50;;;15.20;68.05
8069;BME280;4077;43.702;24.896;2023-04-12T11:29:52;98384.38;;;15.28;68.58
8069;BME280;4077;43.702;24.896;2023-04-12T11:32:24;98389.41;;;15.35;67.86
8069;BME280;4077;43.702;24.896;2023-04-12T11:34:52;98389.25;;;15.41;67.13
8069;BME280;4077;43.702;24.896;2023-04-12T11:37:19;98391.59;;;15.17;67.09
8069;BME280;4077;43.702;24.896;2023-04-12T11:39:45;98386.22;;;15.23;66.91
8069;BME280;4077;43.702;24.896;2023-04-12T11:42:15;98383.28;;;15.37;66.71
8069;BME280;4077;43.702;24.896;2023-04-12T11:44:42;98380.03;;;15.29;66.92
8069;BME280;4077;43.702;24.896;2023-04-12T11:47:16;98384.22;;;15.35;66.19
8069;BME280;4077;43.702;24.896;2023-04-12T11:49:53;98375.78;;;15.59;67.29
8069;BME280;4077;43.702;24.896;2023-04-12T11:52:20;98387.16;;;15.55;66.16
8069;BME280;4077;43.702;24.896;2023-04-12T11:54:48;98387.88;;;15.27;65.43
8069;BME280;4077;43.702;24.896;2023-04-12T11:57:15;98377.47;;;15.27;65.74
8069;BME280;4077;43.702;24.896;2023-04-12T11:59:45;98382.91;;;15.18;66.03
8069;BME280;4077;43.702;24.896;2023-04-12T12:02:12;98385.41;;;15.21;66.03
8069;BME280;4077;43.702;24.896;2023-04-12T12:04:39;98388.25;;;15.12;66.90
8069;BME280;4077;43.702;24.896;2023-04-12T12:07:07;98386.22;;;15.23;67.05
8069;BME280;4077;43.702;24.896;2023-04-12T12:09:33;98381.41;;;15.08;66.53
8069;BME280;4077;43.702;24.896;2023-04-12T12:11:59;98391.50;;;15.20;65.29
8069;BME280;4077;43.702;24.896;2023-04-12T12:14:25;98380.75;;;15.00;65.78
8069;BME280;4077;43.702;24.896;2023-04-12T12:16:57;98378.09;;;15.03;67.35
8069;BME280;4077;43.702;24.896;2023-04-12T12:19:36;98388.44;;;15.04;67.66
8069;BME280;4077;43.702;24.896;2023-04-12T12:22:16;98394.09;;;15.20;68.20
8069;BME280;4077;43.702;24.896;2023-04-12T12:27:22;98393.44;;;14.75;66.25
8069;BME280;4077;43.702;24.896;2023-04-12T12:29:49;98392.97;;;14.59;65.81
8069;BME280;4077;43.702;24.896;2023-04-12T12:32:17;98390.22;;;14.65;66.56
8069;BME280;4077;43.702;24.896;2023-04-12T12:34:50;98379.34;;;14.49;67.94
8069;BME280;4077;43.702;24.896;2023-04-12T12:37:19;98388.06;;;14.44;67.47
8069;BME280;4077;43.702;24.896;2023-04-12T12:40:08;98395.81;;;14.45;66.69
8069;BME280;4077;43.702;24.896;2023-04-12T12:42:49;98394.75;;;14.57;66.45
8069;BME280;4077;43.702;24.896;2023-04-12T12:45:17;98390.63;;;14.48;66.24
8069;BME280;4077;43.702;24.896;2023-04-12T12:47:54;98388.06;;;14.44;66.41
8069;BME280;4077;43.702;24.896;2023-04-12T12:50:28;98390.53;;;14.52;66.51
8069;BME280;4077;43.702;24.896;2023-04-12T12:52:54;98392.28;;;14.51;66.63
8069;BME280;4077;43.702;24.896;2023-04-12T12:55:21;98389.69;;;14.51;65.15
8069;BME280;4077;43.702;24.896;2023-04-12T12:57:48;98383.50;;;14.57;65.41
8069;BME280;4077;43.702;24.896;2023-04-12T13:00:15;98380.88;;;14.58;65.79
8069;BME280;4077;43.702;24.896;2023-04-12T13:02:44;98384.09;;;14.68;65.83
8069;BME280;4077;43.702;24.896;2023-04-12T13:05:10;98387.84;;;14.56;65.17
8069;BME280;4077;43.702;24.896;2023-04-12T13:07:36;98387.91;;;14.53;64.54
8069;BME280;4077;43.702;24.896;2023-04-12T13:10:02;98391.50;;;14.46;64.64
8069;BME280;4077;43.702;24.896;2023-04-12T13:12:28;98383.81;;;14.40;65.00
8069;BME280;4077;43.702;24.896;2023-04-12T13:14:54;98391.75;;;14.34;65.42
8069;BME280;4077;43.702;24.896;2023-04-12T13:17:19;98398.50;;;14.41;64.99
8069;BME280;4077;43.702;24.896;2023-04-12T13:19:45;98390.00;;;14.36;65.26
8069;BME280;4077;43.702;24.896;2023-04-12T13:22:12;98390.06;;;14.31;65.02
8069;BME280;4077;43.702;24.896;2023-04-12T13:24:37;98390.63;;;14.45;64.91
8069;BME280;4077;43.702;24.896;2023-04-12T13:27:03;98382.16;;;14.37;65.13
8069;BME280;4077;43.702;24.896;2023-04-12T13:29:29;98393.09;;;14.53;64.92